sensor_id;sensor_type;location;lat;lon;timestamp;P1;durP1;ratioP1;P2;durP2;ratioP2
37151;SDS011;23046;50.112;8.952;2024-03-23T00:51:50;4.45;;;4.03;;
37151;SDS011;23046;50.112;8.952;2024-03-23T00:52:11;4.70;;;4.13;;
37151;SDS011;23046;50.112;8.952;2024-03-23T00:52:21;5.28;;;4.15;;
37151;SDS011;23046;50.112;8.952;2024-03-23T00:52:32;5.43;;;4.10;;
37151;SDS011;23046;50.112;8.952;2024-03-23T00:52:42;6.37;;;4.33;;
37151;SDS011;23046;50.112;8.952;2024-03-23T00:53:03;7.07;;;4.40;;
37151;SDS011;23046;50.112;8.952;2024-03-23T00:53:25;5.05;;;3.97;;
37151;SDS011;23046;50.112;8.952;2024-03-23T00:53:35;4.33;;;3.93;;
37151;SDS011;23046;50.112;8.952;2024-03-23T00:53:45;4.57;;;4.03;;
37151;SDS011;23046;50.112;8.952;2024-03-23T00:53:55;5.23;;;4.37;;
37151;SDS011;23046;50.112;8.952;2024-03-23T00:54:05;5.53;;;4.47;;
37151;SDS011;23046;50.112;8.952;2024-03-23T00:54:15;7.78;;;4.47;;
37151;SDS011;23046;50.112;8.952;2024-03-23T00:54:26;7.27;;;4.10;;
37151;SDS011;23046;50.112;8.952;2024-03-23T00:54:36;6.03;;;3.87;;
37151;SDS011;23046;50.112;8.952;2024-03-23T00:54:46;4.27;;;3.87;;
37151;SDS011;23046;50.112;8.952;2024-03-23T00:54:56;4.30;;;3.90;;
37151;SDS011;23046;50.112;8.952;2024-03-23T00:55:07;5.20;;;4.00;;
37151;SDS011;23046;50.112;8.952;2024-03-23T00:55:18;5.28;;;3.80;;
37151;SDS011;23046;50.112;8.952;2024-03-23T00:55:28;4.97;;;3.73;;
37151;SDS011;23046;50.112;8.952;2024-03-23T00:55:38;5.27;;;3.93;;
37151;SDS011;23046;50.112;8.952;2024-03-23T00:55:48;6.03;;;4.10;;
37151;SDS011;23046;50.112;8.952;2024-03-23T00:55:58;6.07;;;4.13;;
37151;SDS011;23046;50.112;8.952;2024-03-23T00:56:09;5.28;;;4.05;;
37151;SDS011;23046;50.112;8.952;2024-03-23T00:56:19;5.17;;;4.17;;
37151;SDS011;23046;50.112;8.952;2024-03-23T00:56:29;5.20;;;4.23;;
37151;SDS011;23046;50.112;8.952;2024-03-23T00:56:39;4.80;;;4.10;;
37151;SDS011;23046;50.112;8.952;2024-03-23T00:56:50;4.85;;;4.00;;
37151;SDS011;23046;50.112;8.952;2024-03-23T00:57:00;4.70;;;4.00;;
37151;SDS011;23046;50.112;8.952;2024-03-23T00:57:10;4.67;;;4.03;;
37151;SDS011;23046;50.112;8.952;2024-03-23T00:57:20;4.57;;;4.10;;
37151;SDS011;23046;50.112;8.952;2024-03-23T00:57:30;4.67;;;4.00;;
37151;SDS011;23046;50.112;8.952;2024-03-23T00:57:40;5.00;;;4.13;;
37151;SDS011;23046;50.112;8.952;2024-03-23T00:57:51;4.65;;;4.07;;
37151;SDS011;23046;50.112;8.952;2024-03-23T00:58:01;4.50;;;4.10;;
37151;SDS011;23046;50.112;8.952;2024-03-23T00:58:11;5.40;;;4.17;;
37151;SDS011;23046;50.112;8.952;2024-03-23T00:58:21;5.53;;;4.10;;
37151;SDS011;23046;50.112;8.952;2024-03-23T00:58:31;5.97;;;4.30;;
37151;SDS011;23046;50.112;8.952;2024-03-23T00:58:42;4.93;;;4.20;;
37151;SDS011;23046;50.112;8.952;2024-03-23T00:58:52;4.70;;;4.27;;
37151;SDS011;23046;50.112;8.952;2024-03-23T00:59:02;4.80;;;4.30;;
37151;SDS011;23046;50.112;8.952;2024-03-23T00:59:12;4.37;;;3.97;;
37151;SDS011;23046;50.112;8.952;2024-03-23T00:59:23;4.78;;;4.05;;
37151;SDS011;23046;50.112;8.952;2024-03-23T00:59:37;4.82;;;4.10;;
37151;SDS011;23046;50.112;8.952;2024-03-23T00:59:47;5.47;;;4.30;;
37151;SDS011;23046;50.112;8.952;2024-03-23T00:59:57;5.53;;;4.03;;
37151;SDS011;23046;50.112;8.952;2024-03-23T01:00:07;5.30;;;4.00;;
37151;SDS011;23046;50.112;8.952;2024-03-23T01:00:20;4.70;;;3.80;;
37151;SDS011;23046;50.112;8.952;2024-03-23T01:00:30;4.87;;;3.93;;
37151;SDS011;23046;50.112;8.952;2024-03-23T01:00:41;5.28;;;4.00;;
37151;SDS011;23046;50.112;8.952;2024-03-23T01:00:51;6.47;;;4.10;;
37151;SDS011;23046;50.112;8.952;2024-03-23T01:01:02;5.87;;;4.00;;
37151;SDS011;23046;50.112;8.952;2024-03-23T01:01:13;6.22;;;3.97;;
37151;SDS011;23046;50.112;8.952;2024-03-23T01:01:23;5.90;;;3.90;;
37151;SDS011;23046;50.112;8.952;2024-03-23T01:01:34;6.10;;;3.90;;
37151;SDS011;23046;50.112;8.952;2024-03-23T01:01:44;5.60;;;3.88;;
37151;SDS011;23046;50.112;8.952;2024-03-23T01:01:54;5.60;;;3.90;;
37151;SDS011;23046;50.112;8.952;2024-03-23T01:02:05;6.22;;;4.10;;
37151;SDS011;23046;50.112;8.952;2024-03-23T01:02:15;5.77;;;4.20;;
37151;SDS011;23046;50.112;8.952;2024-03-23T01:02:25;6.20;;;4.37;;
37151;SDS011;23046;50.112;8.952;2024-03-23T01:02:36;5.77;;;4.30;;
37151;SDS011;23046;50.112;8.952;2024-03-23T01:02:46;5.40;;;4.30;;
37151;SDS011;23046;50.112;8.952;2024-03-23T01:02:56;5.67;;;4.07;;
37151;SDS011;23046;50.112;8.952;2024-03-23T01:03:06;5.50;;;4.00;;
37151;SDS011;23046;50.112;8.952;2024-03-23T01:03:16;5.73;;;3.80;;
37151;SDS011;23046;50.112;8.952;2024-03-23T01:03:27;5.97;;;3.80;;
37151;SDS011;23046;50.112;8.952;2024-03-23T01:03:37;6.82;;;3.95;;
37151;SDS011;23046;50.112;8.952;2024-03-23T01:03:47;6.67;;;4.10;;
37151;SDS011;23046;50.112;8.952;2024-03-23T01:03:57;5.60;;;4.30;;
37151;SDS011;23046;50.112;8.952;2024-03-23T01:04:07;5.03;;;4.30;;
37151;SDS011;23046;50.112;8.952;2024-03-23T01:04:18;4.87;;;4.17;;
37151;SDS011;23046;50.112;8.952;2024-03-23T01:04:28;4.50;;;3.90;;
37151;SDS011;23046;50.112;8.952;2024-03-23T01:04:38;4.63;;;4.15;;
37151;SDS011;23046;50.112;8.952;2024-03-23T01:04:48;5.67;;;4.30;;
37151;SDS011;23046;50.112;8.952;2024-03-23T01:04:58;6.60;;;4.60;;
37151;SDS011;23046;50.112;8.952;2024-03-23T01:05:09;7.33;;;4.30;;
37151;SDS011;23046;50.112;8.952;2024-03-23T01:05:19;6.70;;;4.20;;
37151;SDS011;23046;50.112;8.952;2024-03-23T01:05:29;6.30;;;4.10;;
37151;SDS011;23046;50.112;8.952;2024-03-23T01:05:39;5.53;;;4.30;;
37151;SDS011;23046;50.112;8.952;2024-03-23T01:05:49;5.57;;;4.33;;
37151;SDS011;23046;50.112;8.952;2024-03-23T01:06:00;5.40;;;4.10;;
37151;SDS011;23046;50.112;8.952;2024-03-23T01:06:10;4.90;;;3.92;;
37151;SDS011;23046;50.112;8.952;2024-03-23T01:06:20;4.60;;;4.00;;
37151;SDS011;23046;50.112;8.952;2024-03-23T01:06:31;5.07;;;4.20;;
37151;SDS011;23046;50.112;8.952;2024-03-23T01:06:41;5.90;;;4.43;;
37151;SDS011;23046;50.112;8.952;2024-03-23T01:06:52;6.47;;;4.20;;
37151;SDS011;23046;50.112;8.952;2024-03-23T01:07:02;6.47;;;4.17;;
37151;SDS011;23046;50.112;8.952;2024-03-23T01:07:12;5.80;;;4.10;;
37151;SDS011;23046;50.112;8.952;2024-03-23T01:07:22;5.20;;;4.10;;
37151;SDS011;23046;50.112;8.952;2024-03-23T01:07:32;4.73;;;4.10;;
37151;SDS011;23046;50.112;8.952;2024-03-23T01:07:43;4.50;;;4.00;;
37151;SDS011;23046;50.112;8.952;2024-03-23T01:07:53;4.60;;;4.10;;
37151;SDS011;23046;50.112;8.952;2024-03-23T01:08:03;4.87;;;4.23;;
37151;SDS011;23046;50.112;8.952;2024-03-23T01:08:13;5.10;;;4.22;;
37151;SDS011;23046;50.112;8.952;2024-03-23T01:08:23;4.70;;;4.10;;
37151;SDS011;23046;50.112;8.952;2024-03-23T01:08:34;4.13;;;3.73;;
37151;SDS011;23046;50.112;8.952;2024-03-23T01:08:44;4.30;;;3.90;;
37151;SDS011;23046;50.112;8.952;2024-03-23T01:08:54;4.30;;;3.90;;
37151;SDS011;23046;50.112;8.952;2024-03-23T01:09:04;5.53;;;4.43;;
37151;SDS011;23046;50.112;8.952;2024-03-23T01:09:14;6.30;;;4.20;;
37151;SDS011;23046;50.112;8.952;2024-03-23T01:09:25;6.43;;;4.30;;
37151;SDS011;23046;50.112;8.952;2024-03-23T01:09:35;5.20;;;4.00;;
37151;SDS011;23046;50.112;8.952;2024-03-23T01:09:45;4.78;;;4.20;;
37151;SDS011;23046;50.112;8.952;2024-03-23T01:09:55;4.80;;;4.07;;
37151;SDS011;23046;50.112;8.952;2024-03-23T01:10:06;4.83;;;4.03;;
37151;SDS011;23046;50.112;8.952;2024-03-23T01:10:16;4.43;;;3.93;;
37151;SDS011;23046;50.112;8.952;2024-03-23T01:10:26;4.57;;;4.05;;
37151;SDS011;23046;50.112;8.952;2024-03-23T01:10:36;4.57;;;3.97;;
37151;SDS011;23046;50.112;8.952;2024-03-23T01:10:54;4.63;;;4.10;;
37151;SDS011;23046;50.112;8.952;2024-03-23T01:11:04;4.82;;;4.13;;
37151;SDS011;23046;50.112;8.952;2024-03-23T01:11:14;4.70;;;4.07;;
37151;SDS011;23046;50.112;8.952;2024-03-23T01:11:24;4.63;;;3.90;;
37151;SDS011;23046;50.112;8.952;2024-03-23T01:11:34;5.55;;;3.97;;
37151;SDS011;23046;50.112;8.952;2024-03-23T01:11:44;5.57;;;3.93;;
37151;SDS011;23046;50.112;8.952;2024-03-23T01:11:55;6.03;;;4.10;;
37151;SDS011;23046;50.112;8.952;2024-03-23T01:12:05;5.20;;;4.10;;
37151;SDS011;23046;50.112;8.952;2024-03-23T01:12:15;6.47;;;4.40;;
37151;SDS011;23046;50.112;8.952;2024-03-23T01:12:25;6.53;;;4.45;;
37151;SDS011;23046;50.112;8.952;2024-03-23T01:12:36;6.67;;;4.40;;
37151;SDS011;23046;50.112;8.952;2024-03-23T01:12:46;5.50;;;4.20;;
37151;SDS011;23046;50.112;8.952;2024-03-23T01:12:56;4.97;;;3.87;;
37151;SDS011;23046;50.112;8.952;2024-03-23T01:13:06;4.70;;;3.80;;
37151;SDS011;23046;50.112;8.952;2024-03-23T01:13:16;4.43;;;3.73;;
37151;SDS011;23046;50.112;8.952;2024-03-23T01:13:30;4.43;;;4.00;;
37151;SDS011;23046;50.112;8.952;2024-03-23T01:13:40;5.10;;;4.10;;
37151;SDS011;23046;50.112;8.952;2024-03-23T01:13:51;5.43;;;4.03;;
37151;SDS011;23046;50.112;8.952;2024-03-23T01:14:05;5.57;;;4.00;;
37151;SDS011;23046;50.112;8.952;2024-03-23T01:14:16;4.93;;;4.07;;
37151;SDS011;23046;50.112;8.952;2024-03-23T01:14:26;4.70;;;4.00;;
37151;SDS011;23046;50.112;8.952;2024-03-23T01:14:36;4.57;;;4.00;;
37151;SDS011;23046;50.112;8.952;2024-03-23T01:14:46;4.80;;;3.90;;
37151;SDS011;23046;50.112;8.952;2024-03-23T01:14:57;5.03;;;4.10;;
37151;SDS011;23046;50.112;8.952;2024-03-23T01:15:07;5.00;;;4.30;;
37151;SDS011;23046;50.112;8.952;2024-03-23T01:15:17;5.27;;;4.23;;
37151;SDS011;23046;50.112;8.952;2024-03-23T01:15:27;5.77;;;4.20;;
37151;SDS011;23046;50.112;8.952;2024-03-23T01:15:38;5.25;;;3.92;;
37151;SDS011;23046;50.112;8.952;2024-03-23T01:15:48;4.53;;;4.07;;
37151;SDS011;23046;50.112;8.952;2024-03-23T01:15:59;4.57;;;4.18;;
37151;SDS011;23046;50.112;8.952;2024-03-23T01:16:09;5.40;;;4.47;;
37151;SDS011;23046;50.112;8.952;2024-03-23T01:16:19;5.63;;;4.53;;
37151;SDS011;23046;50.112;8.952;2024-03-23T01:16:29;6.30;;;4.63;;
37151;SDS011;23046;50.112;8.952;2024-03-23T01:16:39;5.13;;;4.40;;
37151;SDS011;23046;50.112;8.952;2024-03-23T01:16:50;5.32;;;4.18;;
37151;SDS011;23046;50.112;8.952;2024-03-23T01:17:00;4.50;;;3.80;;
37151;SDS011;23046;50.112;8.952;2024-03-23T01:17:10;5.43;;;3.90;;
37151;SDS011;23046;50.112;8.952;2024-03-23T01:17:20;6.27;;;4.13;;
37151;SDS011;23046;50.112;8.952;2024-03-23T01:17:30;7.43;;;4.33;;
37151;SDS011;23046;50.112;8.952;2024-03-23T01:17:40;6.97;;;4.30;;
37151;SDS011;23046;50.112;8.952;2024-03-23T01:17:51;5.50;;;4.07;;
37151;SDS011;23046;50.112;8.952;2024-03-23T01:18:01;5.10;;;4.00;;
37151;SDS011;23046;50.112;8.952;2024-03-23T01:18:11;5.50;;;4.10;;
37151;SDS011;23046;50.112;8.952;2024-03-23T01:18:22;6.37;;;4.40;;
37151;SDS011;23046;50.112;8.952;2024-03-23T01:18:32;5.97;;;4.30;;
37151;SDS011;23046;50.112;8.952;2024-03-23T01:18:42;5.30;;;4.20;;
37151;SDS011;23046;50.112;8.952;2024-03-23T01:18:53;4.22;;;3.83;;
37151;SDS011;23046;50.112;8.952;2024-03-23T01:19:03;4.60;;;3.93;;
37151;SDS011;23046;50.112;8.952;2024-03-23T01:19:13;5.07;;;4.10;;
37151;SDS011;23046;50.112;8.952;2024-03-23T01:19:23;5.67;;;4.10;;
37151;SDS011;23046;50.112;8.952;2024-03-23T01:19:34;5.80;;;4.00;;
37151;SDS011;23046;50.112;8.952;2024-03-23T01:19:44;5.55;;;3.70;;
37151;SDS011;23046;50.112;8.952;2024-03-23T01:19:54;5.50;;;3.73;;
37151;SDS011;23046;50.112;8.952;2024-03-23T01:20:04;5.33;;;4.00;;
37151;SDS011;23046;50.112;8.952;2024-03-23T01:20:16;5.65;;;4.25;;
37151;SDS011;23046;50.112;8.952;2024-03-23T01:20:26;5.07;;;4.37;;
37151;SDS011;23046;50.112;8.952;2024-03-23T01:20:37;4.68;;;4.03;;
37151;SDS011;23046;50.112;8.952;2024-03-23T01:20:47;5.00;;;4.00;;
37151;SDS011;23046;50.112;8.952;2024-03-23T01:20:58;5.00;;;3.83;;
37151;SDS011;23046;50.112;8.952;2024-03-23T01:21:08;4.80;;;4.00;;
37151;SDS011;23046;50.112;8.952;2024-03-23T01:21:18;4.53;;;4.10;;
37151;SDS011;23046;50.112;8.952;2024-03-23T01:21:28;5.00;;;4.10;;
37151;SDS011;23046;50.112;8.952;2024-03-23T01:21:38;4.50;;;3.90;;
37151;SDS011;23046;50.112;8.952;2024-03-23T01:21:49;4.43;;;3.90;;
37151;SDS011;23046;50.112;8.952;2024-03-23T01:21:59;4.50;;;4.10;;
37151;SDS011;23046;50.112;8.952;2024-03-23T01:22:09;4.73;;;4.23;;
37151;SDS011;23046;50.112;8.952;2024-03-23T01:22:22;5.63;;;4.07;;
37151;SDS011;23046;50.112;8.952;2024-03-23T01:22:32;5.80;;;4.17;;
37151;SDS011;23046;50.112;8.952;2024-03-23T01:22:43;5.50;;;4.03;;
37151;SDS011;23046;50.112;8.952;2024-03-23T01:22:53;5.97;;;4.13;;
37151;SDS011;23046;50.112;8.952;2024-03-23T01:23:03;6.13;;;4.20;;
37151;SDS011;23046;50.112;8.952;2024-03-23T01:23:14;6.47;;;4.33;;
37151;SDS011;23046;50.112;8.952;2024-03-23T01:23:24;5.13;;;4.03;;
37151;SDS011;23046;50.112;8.952;2024-03-23T01:23:34;5.40;;;3.90;;
37151;SDS011;23046;50.112;8.952;2024-03-23T01:23:44;5.17;;;3.97;;
37151;SDS011;23046;50.112;8.952;2024-03-23T01:23:54;5.00;;;4.10;;
37151;SDS011;23046;50.112;8.952;2024-03-23T01:24:04;5.23;;;4.13;;
37151;SDS011;23046;50.112;8.952;2024-03-23T01:24:15;5.17;;;4.07;;
37151;SDS011;23046;50.112;8.952;2024-03-23T01:24:25;5.55;;;4.05;;
37151;SDS011;23046;50.112;8.952;2024-03-23T01:24:35;5.73;;;4.10;;
37151;SDS011;23046;50.112;8.952;2024-03-23T01:24:46;5.40;;;4.00;;
37151;SDS011;23046;50.112;8.952;2024-03-23T01:24:56;5.40;;;4.10;;
37151;SDS011;23046;50.112;8.952;2024-03-23T01:25:06;5.10;;;4.07;;
37151;SDS011;23046;50.112;8.952;2024-03-23T01:25:17;5.97;;;4.28;;
37151;SDS011;23046;50.112;8.952;2024-03-23T01:25:27;6.00;;;4.30;;
37151;SDS011;23046;50.112;8.952;2024-03-23T01:25:38;5.67;;;4.33;;
37151;SDS011;23046;50.112;8.952;2024-03-23T01:25:51;6.53;;;4.30;;
37151;SDS011;23046;50.112;8.952;2024-03-23T01:26:02;8.57;;;4.28;;
37151;SDS011;23046;50.112;8.952;2024-03-23T01:26:12;9.03;;;4.43;;
37151;SDS011;23046;50.112;8.952;2024-03-23T01:26:22;8.35;;;4.50;;
37151;SDS011;23046;50.112;8.952;2024-03-23T01:26:33;6.17;;;4.60;;
37151;SDS011;23046;50.112;8.952;2024-03-23T01:26:43;5.63;;;4.33;;
37151;SDS011;23046;50.112;8.952;2024-03-23T01:26:53;6.60;;;4.50;;
37151;SDS011;23046;50.112;8.952;2024-03-23T01:27:03;5.78;;;4.30;;
37151;SDS011;23046;50.112;8.952;2024-03-23T01:27:14;6.00;;;4.23;;
37151;SDS011;23046;50.112;8.952;2024-03-23T01:27:24;4.88;;;4.00;;
37151;SDS011;23046;50.112;8.952;2024-03-23T01:27:35;4.97;;;3.90;;
37151;SDS011;23046;50.112;8.952;2024-03-23T01:27:45;5.40;;;4.00;;
37151;SDS011;23046;50.112;8.952;2024-03-23T01:27:55;5.37;;;3.90;;
37151;SDS011;23046;50.112;8.952;2024-03-23T01:28:05;5.73;;;4.00;;
37151;SDS011;23046;50.112;8.952;2024-03-23T01:28:21;5.15;;;4.13;;
37151;SDS011;23046;50.112;8.952;2024-03-23T01:28:32;5.25;;;4.35;;
37151;SDS011;23046;50.112;8.952;2024-03-23T01:28:42;5.43;;;4.43;;
37151;SDS011;23046;50.112;8.952;2024-03-23T01:28:52;5.30;;;4.40;;
37151;SDS011;23046;50.112;8.952;2024-03-23T01:29:02;5.07;;;4.17;;
37151;SDS011;23046;50.112;8.952;2024-03-23T01:29:12;4.70;;;4.07;;
37151;SDS011;23046;50.112;8.952;2024-03-23T01:29:23;5.07;;;4.13;;
37151;SDS011;23046;50.112;8.952;2024-03-23T01:29:33;5.37;;;4.10;;
37151;SDS011;23046;50.112;8.952;2024-03-23T01:29:43;5.93;;;4.28;;
37151;SDS011;23046;50.112;8.952;2024-03-23T01:29:54;5.13;;;4.20;;
37151;SDS011;23046;50.112;8.952;2024-03-23T01:30:04;4.50;;;4.10;;
37151;SDS011;23046;50.112;8.952;2024-03-23T01:30:14;4.38;;;3.97;;
37151;SDS011;23046;50.112;8.952;2024-03-23T01:30:26;5.50;;;4.32;;
37151;SDS011;23046;50.112;8.952;2024-03-23T01:30:36;7.53;;;4.53;;
37151;SDS011;23046;50.112;8.952;2024-03-23T01:30:46;7.53;;;4.60;;
37151;SDS011;23046;50.112;8.952;2024-03-23T01:30:56;6.80;;;4.57;;
37151;SDS011;23046;50.112;8.952;2024-03-23T01:31:06;5.10;;;4.50;;
37151;SDS011;23046;50.112;8.952;2024-03-23T01:31:17;5.37;;;4.43;;
37151;SDS011;23046;50.112;8.952;2024-03-23T01:31:27;5.43;;;4.33;;
37151;SDS011;23046;50.112;8.952;2024-03-23T01:31:37;5.93;;;4.43;;
37151;SDS011;23046;50.112;8.952;2024-03-23T01:31:47;5.47;;;4.40;;
37151;SDS011;23046;50.112;8.952;2024-03-23T01:31:57;4.80;;;4.28;;
37151;SDS011;23046;50.112;8.952;2024-03-23T01:32:08;4.60;;;4.10;;
37151;SDS011;23046;50.112;8.952;2024-03-23T01:32:18;5.00;;;4.07;;
37151;SDS011;23046;50.112;8.952;2024-03-23T01:32:28;5.50;;;4.13;;
37151;SDS011;23046;50.112;8.952;2024-03-23T01:32:38;5.78;;;4.30;;
37151;SDS011;23046;50.112;8.952;2024-03-23T01:32:49;5.93;;;4.30;;
37151;SDS011;23046;50.112;8.952;2024-03-23T01:32:59;5.57;;;4.20;;
37151;SDS011;23046;50.112;8.952;2024-03-23T01:33:09;5.40;;;4.13;;
37151;SDS011;23046;50.112;8.952;2024-03-23T01:33:20;5.15;;;4.10;;
37151;SDS011;23046;50.112;8.952;2024-03-23T01:33:30;5.20;;;4.13;;
37151;SDS011;23046;50.112;8.952;2024-03-23T01:33:40;6.50;;;4.27;;
37151;SDS011;23046;50.112;8.952;2024-03-23T01:33:50;6.07;;;4.30;;
37151;SDS011;23046;50.112;8.952;2024-03-23T01:34:00;6.03;;;4.30;;
37151;SDS011;23046;50.112;8.952;2024-03-23T01:34:10;4.88;;;4.10;;
37151;SDS011;23046;50.112;8.952;2024-03-23T01:34:21;5.83;;;4.23;;
37151;SDS011;23046;50.112;8.952;2024-03-23T01:34:31;5.67;;;4.10;;
37151;SDS011;23046;50.112;8.952;2024-03-23T01:34:41;5.70;;;4.10;;
37151;SDS011;23046;50.112;8.952;2024-03-23T01:34:51;4.90;;;4.13;;
37151;SDS011;23046;50.112;8.952;2024-03-23T01:35:01;5.57;;;4.43;;
37151;SDS011;23046;50.112;8.952;2024-03-23T01:35:12;5.90;;;4.40;;
37151;SDS011;23046;50.112;8.952;2024-03-23T01:35:22;5.90;;;4.30;;
37151;SDS011;23046;50.112;8.952;2024-03-23T01:35:32;5.07;;;4.10;;
37151;SDS011;23046;50.112;8.952;2024-03-23T01:35:42;4.53;;;4.10;;
37151;SDS011;23046;50.112;8.952;2024-03-23T01:35:53;4.50;;;4.10;;
37151;SDS011;23046;50.112;8.952;2024-03-23T01:36:03;5.87;;;4.27;;
37151;SDS011;23046;50.112;8.952;2024-03-23T01:36:13;6.43;;;4.30;;
37151;SDS011;23046;50.112;8.952;2024-03-23T01:36:23;6.50;;;4.17;;
37151;SDS011;23046;50.112;8.952;2024-03-23T01:36:34;4.78;;;4.03;;
37151;SDS011;23046;50.112;8.952;2024-03-23T01:36:44;4.93;;;3.90;;
37151;SDS011;23046;50.112;8.952;2024-03-23T01:36:56;6.00;;;4.18;;
37151;SDS011;23046;50.112;8.952;2024-03-23T01:37:06;7.07;;;4.33;;
37151;SDS011;23046;50.112;8.952;2024-03-23T01:37:16;6.37;;;4.50;;
37151;SDS011;23046;50.112;8.952;2024-03-23T01:37:26;6.80;;;4.47;;
37151;SDS011;23046;50.112;8.952;2024-03-23T01:37:37;7.43;;;4.63;;
37151;SDS011;23046;50.112;8.952;2024-03-23T01:37:47;6.77;;;4.53;;
37151;SDS011;23046;50.112;8.952;2024-03-23T01:37:57;6.47;;;4.53;;
37151;SDS011;23046;50.112;8.952;2024-03-23T01:38:07;5.60;;;4.33;;
37151;SDS011;23046;50.112;8.952;2024-03-23T01:38:17;7.30;;;4.70;;
37151;SDS011;23046;50.112;8.952;2024-03-23T01:38:28;7.50;;;4.70;;
37151;SDS011;23046;50.112;8.952;2024-03-23T01:38:38;7.20;;;4.75;;
37151;SDS011;23046;50.112;8.952;2024-03-23T01:38:48;6.40;;;4.73;;
37151;SDS011;23046;50.112;8.952;2024-03-23T01:38:59;6.25;;;4.78;;
37151;SDS011;23046;50.112;8.952;2024-03-23T01:39:09;6.33;;;4.87;;
37151;SDS011;23046;50.112;8.952;2024-03-23T01:39:19;6.13;;;5.00;;
37151;SDS011;23046;50.112;8.952;2024-03-23T01:39:29;6.20;;;5.10;;
37151;SDS011;23046;50.112;8.952;2024-03-23T01:39:39;6.27;;;4.83;;
37151;SDS011;23046;50.112;8.952;2024-03-23T01:39:50;5.50;;;4.55;;
37151;SDS011;23046;50.112;8.952;2024-03-23T01:40:01;5.23;;;4.40;;
37151;SDS011;23046;50.112;8.952;2024-03-23T01:40:11;5.25;;;4.60;;
37151;SDS011;23046;50.112;8.952;2024-03-23T01:40:23;5.82;;;4.40;;
37151;SDS011;23046;50.112;8.952;2024-03-23T01:40:33;5.67;;;4.40;;
37151;SDS011;23046;50.112;8.952;2024-03-23T01:40:44;5.67;;;4.60;;
37151;SDS011;23046;50.112;8.952;2024-03-23T01:40:57;5.83;;;4.80;;
37151;SDS011;23046;50.112;8.952;2024-03-23T01:41:07;6.05;;;4.72;;
37151;SDS011;23046;50.112;8.952;2024-03-23T01:41:17;6.37;;;4.63;;
37151;SDS011;23046;50.112;8.952;2024-03-23T01:41:28;5.47;;;4.40;;
37151;SDS011;23046;50.112;8.952;2024-03-23T01:41:38;5.85;;;4.35;;
37151;SDS011;23046;50.112;8.952;2024-03-23T01:41:52;6.40;;;4.35;;
37151;SDS011;23046;50.112;8.952;2024-03-23T01:42:02;6.47;;;4.35;;
37151;SDS011;23046;50.112;8.952;2024-03-23T01:42:12;6.13;;;4.40;;
37151;SDS011;23046;50.112;8.952;2024-03-23T01:42:22;6.03;;;4.67;;
37151;SDS011;23046;50.112;8.952;2024-03-23T01:42:33;6.27;;;4.70;;
37151;SDS011;23046;50.112;8.952;2024-03-23T01:42:54;7.60;;;4.70;;
37151;SDS011;23046;50.112;8.952;2024-03-23T01:43:05;8.13;;;4.53;;
37151;SDS011;23046;50.112;8.952;2024-03-23T01:43:17;8.65;;;4.50;;
37151;SDS011;23046;50.112;8.952;2024-03-23T01:43:27;10.02;;;4.55;;
37151;SDS011;23046;50.112;8.952;2024-03-23T01:43:37;8.40;;;4.70;;
37151;SDS011;23046;50.112;8.952;2024-03-23T01:43:47;8.03;;;4.60;;
37151;SDS011;23046;50.112;8.952;2024-03-23T01:43:57;6.87;;;4.57;;
37151;SDS011;23046;50.112;8.952;2024-03-23T01:44:08;5.83;;;4.43;;
37151;SDS011;23046;50.112;8.952;2024-03-23T01:44:18;5.55;;;4.68;;
37151;SDS011;23046;50.112;8.952;2024-03-23T01:44:28;5.40;;;4.67;;
37151;SDS011;23046;50.112;8.952;2024-03-23T01:44:39;6.33;;;4.87;;
37151;SDS011;23046;50.112;8.952;2024-03-23T01:44:49;6.27;;;4.70;;
37151;SDS011;23046;50.112;8.952;2024-03-23T01:44:59;6.18;;;4.65;;
37151;SDS011;23046;50.112;8.952;2024-03-23T01:45:09;7.20;;;4.63;;
37151;SDS011;23046;50.112;8.952;2024-03-23T01:45:19;7.77;;;4.60;;
37151;SDS011;23046;50.112;8.952;2024-03-23T01:45:30;7.60;;;4.50;;
37151;SDS011;23046;50.112;8.952;2024-03-23T01:45:40;6.25;;;4.50;;
37151;SDS011;23046;50.112;8.952;2024-03-23T01:45:51;5.73;;;4.70;;
37151;SDS011;23046;50.112;8.952;2024-03-23T01:46:03;6.22;;;4.65;;
37151;SDS011;23046;50.112;8.952;2024-03-23T01:46:13;6.33;;;4.70;;
37151;SDS011;23046;50.112;8.952;2024-03-23T01:46:23;6.80;;;4.75;;
37151;SDS011;23046;50.112;8.952;2024-03-23T01:46:34;7.33;;;4.80;;
37151;SDS011;23046;50.112;8.952;2024-03-23T01:46:44;7.67;;;4.70;;
37151;SDS011;23046;50.112;8.952;2024-03-23T01:46:54;7.30;;;4.43;;
37151;SDS011;23046;50.112;8.952;2024-03-23T01:47:06;6.63;;;4.50;;
37151;SDS011;23046;50.112;8.952;2024-03-23T01:47:16;6.57;;;4.63;;
37151;SDS011;23046;50.112;8.952;2024-03-23T01:47:26;6.22;;;4.50;;
37151;SDS011;23046;50.112;8.952;2024-03-23T01:47:36;6.37;;;4.17;;
37151;SDS011;23046;50.112;8.952;2024-03-23T01:47:47;5.77;;;4.00;;
37151;SDS011;23046;50.112;8.952;2024-03-23T01:47:57;5.87;;;4.13;;
37151;SDS011;23046;50.112;8.952;2024-03-23T01:48:07;5.53;;;4.15;;
37151;SDS011;23046;50.112;8.952;2024-03-23T01:48:19;6.30;;;4.38;;
37151;SDS011;23046;50.112;8.952;2024-03-23T01:48:29;7.03;;;4.53;;
37151;SDS011;23046;50.112;8.952;2024-03-23T01:48:40;7.30;;;4.67;;
37151;SDS011;23046;50.112;8.952;2024-03-23T01:48:50;6.70;;;4.63;;
37151;SDS011;23046;50.112;8.952;2024-03-23T01:49:00;8.37;;;4.80;;
37151;SDS011;23046;50.112;8.952;2024-03-23T01:49:10;9.88;;;4.80;;
37151;SDS011;23046;50.112;8.952;2024-03-23T01:49:21;9.63;;;4.65;;
37151;SDS011;23046;50.112;8.952;2024-03-23T01:49:32;7.70;;;4.50;;
37151;SDS011;23046;50.112;8.952;2024-03-23T01:49:42;6.30;;;4.50;;
37151;SDS011;23046;50.112;8.952;2024-03-23T01:49:52;7.32;;;4.55;;
37151;SDS011;23046;50.112;8.952;2024-03-23T01:50:03;6.63;;;4.50;;
37151;SDS011;23046;50.112;8.952;2024-03-23T01:50:14;6.05;;;4.47;;
37151;SDS011;23046;50.112;8.952;2024-03-23T01:50:25;5.72;;;4.70;;
37151;SDS011;23046;50.112;8.952;2024-03-23T01:50:35;5.83;;;4.70;;
37151;SDS011;23046;50.112;8.952;2024-03-23T01:50:45;6.47;;;4.77;;
37151;SDS011;23046;50.112;8.952;2024-03-23T01:50:55;6.50;;;4.80;;
37151;SDS011;23046;50.112;8.952;2024-03-23T01:51:06;6.37;;;4.83;;
37151;SDS011;23046;50.112;8.952;2024-03-23T01:51:16;6.00;;;4.93;;
37151;SDS011;23046;50.112;8.952;2024-03-23T01:51:27;6.27;;;5.00;;
37151;SDS011;23046;50.112;8.952;2024-03-23T01:51:37;6.97;;;4.90;;
37151;SDS011;23046;50.112;8.952;2024-03-23T01:51:47;7.28;;;4.85;;
37151;SDS011;23046;50.112;8.952;2024-03-23T01:51:58;6.60;;;4.73;;
37151;SDS011;23046;50.112;8.952;2024-03-23T01:52:09;6.35;;;4.90;;
37151;SDS011;23046;50.112;8.952;2024-03-23T01:52:19;7.53;;;4.90;;
37151;SDS011;23046;50.112;8.952;2024-03-23T01:52:29;8.73;;;5.20;;
37151;SDS011;23046;50.112;8.952;2024-03-23T01:52:40;9.50;;;5.22;;
37151;SDS011;23046;50.112;8.952;2024-03-23T01:52:50;9.13;;;5.23;;
37151;SDS011;23046;50.112;8.952;2024-03-23T01:53:04;8.23;;;4.85;;
37151;SDS011;23046;50.112;8.952;2024-03-23T01:53:15;7.60;;;4.95;;
37151;SDS011;23046;50.112;8.952;2024-03-23T01:53:27;6.72;;;4.80;;
37151;SDS011;23046;50.112;8.952;2024-03-23T01:53:38;7.20;;;4.90;;
37151;SDS011;23046;50.112;8.952;2024-03-23T01:53:48;7.03;;;4.97;;
37151;SDS011;23046;50.112;8.952;2024-03-23T01:53:58;8.53;;;5.30;;
37151;SDS011;23046;50.112;8.952;2024-03-23T01:54:12;7.63;;;5.13;;
37151;SDS011;23046;50.112;8.952;2024-03-23T01:54:23;6.80;;;5.10;;
37151;SDS011;23046;50.112;8.952;2024-03-23T01:54:33;7.33;;;5.40;;
37151;SDS011;23046;50.112;8.952;2024-03-23T01:54:43;7.77;;;5.50;;
37151;SDS011;23046;50.112;8.952;2024-03-23T01:54:54;7.93;;;5.43;;
37151;SDS011;23046;50.112;8.952;2024-03-23T01:55:04;8.27;;;5.53;;
37151;SDS011;23046;50.112;8.952;2024-03-23T01:55:14;9.80;;;5.67;;
37151;SDS011;23046;50.112;8.952;2024-03-23T01:55:25;10.50;;;5.60;;